Time;durP1;ratioP1;P1;durP2;ratioP2;P2;SDS_P1;SDS_P2;PMS_P1;PMS_P2;Temp;Humidity;BMP_temperature;BMP_pressure;BME280_temperature;BME280_humidity;BME280_pressure;Samples;Min_cycle;Max_cycle;Signal;HPM_P1;HPM_P2
2023/01/09 00:01:43;;;;;;;11.65;3.28;;;4.90;99.90;;;;;;4978481;28;20507;-93
2023/01/09 00:04:09;;;;;;;12.15;3.33;;;4.90;99.90;;;;;;4978279;28;20496;-93
2023/01/09 00:06:36;;;;;;;11.95;2.90;;;4.90;99.90;;;;;;4978011;28;20026;-93
2023/01/09 00:09:02;;;;;;;11.75;3.50;;;4.90;99.90;;;;;;4978742;28;20064;-92
2023/01/09 00:11:28;;;;;;;12.30;2.53;;;4.90;99.90;;;;;;4977799;28;20104;-93
2023/01/09 00:13:54;;;;;;;10.75;2.60;;;4.80;99.90;;;;;;4978191;28;20030;-93
2023/01/09 00:16:19;;;;;;;11.50;2.47;;;4.80;99.90;;;;;;4977994;28;20030;-93
2023/01/09 00:18:45;;;;;;;6.55;1.73;;;4.80;99.90;;;;;;4978171;28;20033;-92
2023/01/09 00:21:12;;;;;;;9.27;1.83;;;4.90;99.90;;;;;;4995518;28;20441;-92
2023/01/09 00:23:38;;;;;;;7.85;2.15;;;4.80;99.90;;;;;;4978023;28;20110;-92
2023/01/09 00:26:05;;;;;;;11.15;2.28;;;4.80;99.90;;;;;;4977805;28;20046;-92
2023/01/09 00:28:31;;;;;;;6.22;2.33;;;4.90;99.90;;;;;;4976556;28;20027;-92
2023/01/09 00:30:58;;;;;;;7.35;2.33;;;4.90;99.90;;;;;;4980005;28;20495;-93
2023/01/09 00:33:40;;;;;;;9.75;1.63;;;4.90;99.90;;;;;;4977978;28;20484;-93
2023/01/09 00:36:06;;;;;;;9.25;1.77;;;4.90;99.90;;;;;;4977510;28;20026;-92
2023/01/09 00:38:31;;;;;;;15.27;2.90;;;4.90;99.90;;;;;;4977630;28;20057;-94
2023/01/09 00:40:59;;;;;;;10.45;1.83;;;4.90;99.90;;;;;;4977699;28;20065;-93
2023/01/09 00:43:29;;;;;;;9.00;2.22;;;5.00;99.90;;;;;;4977803;28;20176;-93
2023/01/09 00:45:55;;;;;;;10.00;2.00;;;5.00;99.90;;;;;;4977355;28;20034;-94
2023/01/09 00:48:25;;;;;;;4.88;1.58;;;5.00;99.90;;;;;;4976635;28;20037;-93
2023/01/09 00:50:51;;;;;;;9.27;1.90;;;5.00;99.90;;;;;;4976594;28;20123;-93
2023/01/09 00:53:20;;;;;;;8.95;2.30;;;5.00;99.90;;;;;;4976817;28;20029;-93
2023/01/09 00:55:45;;;;;;;13.98;2.30;;;5.00;99.90;;;;;;4975595;28;20033;-94
2023/01/09 00:58:11;;;;;;;8.55;2.05;;;5.00;99.90;;;;;;4976431;28;20399;-93
2023/01/09 01:00:37;;;;;;;4.75;2.13;;;5.10;99.90;;;;;;4976146;28;20125;-93
2023/01/09 01:03:03;;;;;;;7.22;1.70;;;5.10;99.90;;;;;;4976651;28;20063;-93
2023/01/09 01:08:14;;;;;;;8.82;1.80;;;5.10;99.90;;;;;;4995245;28;20057;-93
2023/01/09 01:10:41;;;;;;;8.13;1.67;;;5.00;99.90;;;;;;4976000;28;20047;-94
2023/01/09 01:13:07;;;;;;;14.20;2.10;;;5.10;99.90;;;;;;4976101;28;20037;-95
2023/01/09 01:15:33;;;;;;;10.85;2.33;;;5.00;99.90;;;;;;4976516;28;20026;-93
2023/01/09 01:17:59;;;;;;;8.40;1.70;;;5.00;99.90;;;;;;4975724;28;20034;-92
2023/01/09 01:20:24;;;;;;;11.05;2.22;;;5.00;99.90;;;;;;4975948;28;20495;-92
2023/01/09 01:22:50;;;;;;;5.65;1.75;;;5.10;99.90;;;;;;4975946;28;20022;-94
2023/01/09 01:25:16;;;;;;;13.18;2.10;;;5.10;99.90;;;;;;4975698;28;20034;-93
2023/01/09 01:27:43;;;;;;;6.38;1.73;;;5.10;99.90;;;;;;4975840;28;20034;-92
2023/01/09 01:30:12;;;;;;;6.97;1.80;;;5.10;99.90;;;;;;4975464;28;20030;-92
2023/01/09 01:32:38;;;;;;;14.50;1.98;;;5.20;99.90;;;;;;4975472;28;20130;-93
2023/01/09 01:35:05;;;;;;;12.00;3.83;;;5.20;99.90;;;;;;4975700;28;20499;-93
2023/01/09 01:37:32;;;;;;;12.75;3.53;;;5.20;99.90;;;;;;4975337;28;20030;-92
2023/01/09 01:39:58;;;;;;;12.43;2.13;;;5.20;99.90;;;;;;4975152;28;20057;-93
2023/01/09 01:42:24;;;;;;;12.52;1.90;;;5.20;99.90;;;;;;4975630;28;20038;-93
2023/01/09 01:45:09;;;;;;;13.02;2.25;;;5.20;99.90;;;;;;4993061;28;20113;-92
2023/01/09 01:48:02;;;;;;;11.68;2.03;;;5.20;99.90;;;;;;4975734;28;20079;-92
2023/01/09 01:50:31;;;;;;;11.77;2.30;;;5.30;99.90;;;;;;4975290;28;20046;-93
2023/01/09 01:53:03;;;;;;;18.63;2.05;;;5.30;99.90;;;;;;4975553;28;20027;-92
2023/01/09 01:55:29;;;;;;;10.15;2.40;;;5.30;99.90;;;;;;4977215;28;20089;-92
2023/01/09 01:57:59;;;;;;;13.02;1.83;;;5.30;99.90;;;;;;4977621;28;20033;-93
2023/01/09 02:00:31;;;;;;;17.05;2.17;;;5.40;99.90;;;;;;4976252;28;20030;-92
2023/01/09 02:02:58;;;;;;;11.65;2.05;;;5.30;99.90;;;;;;4976266;28;20035;-92
2023/01/09 02:05:23;;;;;;;10.50;2.00;;;5.30;99.90;;;;;;4976123;28;20018;-92
2023/01/09 02:07:49;;;;;;;7.63;1.77;;;5.30;99.90;;;;;;4978120;28;20401;-91
2023/01/09 02:10:15;;;;;;;19.90;2.13;;;5.40;99.90;;;;;;4979123;28;20386;-93
2023/01/09 02:12:41;;;;;;;12.70;2.20;;;5.40;99.90;;;;;;4979016;28;20034;-93
2023/01/09 02:15:10;;;;;;;10.48;1.88;;;5.40;99.90;;;;;;4979244;28;20029;-93
2023/01/09 02:18:23;;;;;;;6.00;1.58;;;5.40;99.90;;;;;;4978856;28;20423;-93
2023/01/09 02:21:07;;;;;;;11.43;1.50;;;5.40;99.90;;;;;;4939391;29;20046;-92
2023/01/09 02:23:51;;;;;;;6.05;2.13;;;5.40;99.90;;;;;;4939805;29;20790;-92
2023/01/09 02:26:41;;;;;;;18.05;3.03;;;5.50;99.90;;;;;;4939244;29;20086;-93
2023/01/09 02:29:42;;;;;;;13.57;3.10;;;5.50;99.90;;;;;;4938892;29;20062;-93
2023/01/09 02:32:26;;;;;;;;;;;5.50;99.90;;;;;;4939383;29;20599;-93
2023/01/09 02:34:51;;;;;;;5.55;1.67;;;5.50;99.90;;;;;;4955333;29;20001;-93
2023/01/09 02:37:47;;;;;;;9.65;2.15;;;5.50;99.90;;;;;;4939816;29;20106;-93
2023/01/09 02:40:23;;;;;;;15.77;1.80;;;5.50;99.90;;;;;;4955467;29;20028;-93
2023/01/09 02:42:49;;;;;;;12.40;2.08;;;5.50;99.90;;;;;;4938875;29;20039;-93
2023/01/09 02:45:15;;;;;;;12.65;2.17;;;5.50;99.90;;;;;;4939348;29;20082;-92
2023/01/09 02:47:43;;;;;;;11.18;1.90;;;5.60;99.90;;;;;;4939877;29;20054;-92
2023/01/09 02:50:28;;;;;;;17.08;2.53;;;5.60;99.90;;;;;;4939560;29;20070;-93
2023/01/09 02:53:15;;;;;;;10.90;1.77;;;5.60;99.90;;;;;;4940108;29;20126;-93
2023/01/09 02:56:05;;;;;;;7.55;1.40;;;5.60;99.90;;;;;;4975697;28;20058;-93
2023/01/09 02:58:57;;;;;;;6.50;2.53;;;5.60;99.90;;;;;;4978570;28;20053;-94
2023/01/09 03:01:43;;;;;;;11.73;2.97;;;5.60;99.90;;;;;;4939644;29;20509;-95
2023/01/09 03:04:47;;;;;;;8.50;1.48;;;5.70;99.90;;;;;;4939242;29;20129;-92
2023/01/09 03:07:20;;;;;;;12.75;2.15;;;5.70;99.90;;;;;;4934365;29;20035;-94
2023/01/09 03:09:49;;;;;;;22.10;2.75;;;5.70;99.90;;;;;;4939616;29;20515;-94
2023/01/09 03:12:19;;;;;;;9.90;2.25;;;5.70;99.90;;;;;;4939478;29;20079;-95
2023/01/09 03:14:55;;;;;;;13.48;2.55;;;5.60;99.90;;;;;;4939315;29;20027;-94
2023/01/09 03:17:42;;;;;;;8.27;1.63;;;5.60;99.90;;;;;;4938644;29;20035;-94
2023/01/09 03:20:11;;;;;;;15.18;1.85;;;5.60;99.90;;;;;;4938261;29;20079;-93
2023/01/09 03:22:39;;;;;;;10.32;2.28;;;5.60;99.90;;;;;;4938773;29;20035;-94
2023/01/09 03:25:05;;;;;;;12.52;1.77;;;5.60;99.90;;;;;;4938881;29;20122;-94
2023/01/09 03:27:31;;;;;;;10.00;2.50;;;5.60;99.90;;;;;;4938623;29;20123;-91
2023/01/09 03:29:57;;;;;;;11.70;1.50;;;5.60;99.90;;;;;;4954740;29;20523;-93
2023/01/09 03:32:23;;;;;;;15.75;2.10;;;5.50;99.90;;;;;;4938753;29;20043;-94
2023/01/09 03:34:48;;;;;;;12.77;1.50;;;5.60;99.90;;;;;;4937938;29;20027;-93
2023/01/09 03:37:14;;;;;;;6.45;1.38;;;5.50;99.90;;;;;;4939261;28;20035;-93
2023/01/09 03:39:39;;;;;;;12.93;2.22;;;5.50;99.90;;;;;;4977808;28;20077;-92
2023/01/09 03:42:05;;;;;;;13.38;2.28;;;5.50;99.90;;;;;;4978092;28;20033;-91
2023/01/09 03:44:31;;;;;;;18.20;2.38;;;5.50;99.90;;;;;;4978263;28;20097;-92
2023/01/09 03:46:56;;;;;;;14.48;3.30;;;5.50;99.90;;;;;;4977832;28;20035;-93
2023/01/09 03:49:22;;;;;;;11.40;2.15;;;5.50;99.90;;;;;;4994746;28;20439;-93
2023/01/09 03:51:48;;;;;;;12.15;2.00;;;5.50;99.90;;;;;;4977554;28;20054;-93
2023/01/09 03:54:13;;;;;;;9.70;2.25;;;5.50;99.90;;;;;;4977175;28;20027;-92
2023/01/09 03:56:39;;;;;;;9.48;1.77;;;5.50;99.90;;;;;;4977649;28;20026;-93
2023/01/09 03:59:05;;;;;;;9.65;2.08;;;5.50;99.90;;;;;;4977641;28;20415;-93
2023/01/09 04:01:31;;;;;;;11.77;2.13;;;5.50;99.90;;;;;;4976895;28;20030;-94
2023/01/09 04:03:57;;;;;;;11.90;2.38;;;5.50;99.90;;;;;;4977436;28;20037;-93
2023/01/09 04:06:23;;;;;;;12.75;2.30;;;5.40;99.90;;;;;;4977898;28;20026;-94
2023/01/09 04:08:48;;;;;;;10.43;1.70;;;5.40;99.90;;;;;;4977131;28;20113;-93
2023/01/09 04:11:16;;;;;;;8.80;2.35;;;5.40;99.90;;;;;;4976754;28;20061;-93
2023/01/09 04:13:43;;;;;;;7.70;2.05;;;5.40;99.90;;;;;;4976833;28;20018;-93
2023/01/09 04:16:09;;;;;;;13.52;2.38;;;5.40;99.90;;;;;;4977449;28;20027;-92
2023/01/09 04:18:35;;;;;;;14.20;2.58;;;5.40;99.90;;;;;;4977084;28;20041;-92
2023/01/09 04:21:01;;;;;;;17.17;3.70;;;5.40;99.90;;;;;;4977660;28;20096;-92
2023/01/09 04:23:26;;;;;;;10.20;2.70;;;5.40;99.90;;;;;;4977301;28;20452;-92
2023/01/09 04:25:52;;;;;;;11.02;2.38;;;5.40;99.90;;;;;;4993970;28;20062;-93
2023/01/09 04:28:18;;;;;;;13.15;2.70;;;5.40;99.90;;;;;;4976517;28;20065;-93
2023/01/09 04:30:44;;;;;;;11.82;4.25;;;5.40;99.90;;;;;;4975591;28;20054;-91
2023/01/09 04:33:09;;;;;;;9.40;2.60;;;5.30;99.90;;;;;;4976653;28;20034;-92
2023/01/09 04:35:35;;;;;;;16.65;3.25;;;5.30;99.90;;;;;;4976781;28;20400;-91
2023/01/09 04:38:01;;;;;;;8.52;1.45;;;5.20;99.90;;;;;;4977055;28;20037;-92
2023/01/09 04:40:26;;;;;;;12.18;2.40;;;5.20;99.90;;;;;;4977075;28;20582;-93
2023/01/09 04:42:52;;;;;;;7.90;2.45;;;5.10;99.90;;;;;;4976310;28;20022;-92
2023/01/09 04:45:18;;;;;;;16.85;3.53;;;5.10;99.90;;;;;;4976544;28;20037;-92
2023/01/09 04:47:44;;;;;;;12.85;2.42;;;5.10;99.90;;;;;;4977039;28;20027;-93
2023/01/09 04:50:11;;;;;;;15.82;2.60;;;5.10;99.90;;;;;;4977246;28;20484;-93
2023/01/09 04:52:36;;;;;;;10.13;2.30;;;5.10;99.90;;;;;;4979027;28;20046;-91
2023/01/09 04:55:04;;;;;;;7.82;1.90;;;5.10;99.90;;;;;;4978430;28;20030;-91
2023/01/09 04:57:30;;;;;;;14.40;2.17;;;5.10;99.90;;;;;;4977845;28;20034;-93
2023/01/09 04:59:55;;;;;;;15.10;1.80;;;5.10;99.90;;;;;;4977064;28;20137;-92
2023/01/09 05:02:21;;;;;;;12.23;2.33;;;5.10;99.90;;;;;;4976589;28;20023;-92
2023/01/09 05:04:47;;;;;;;10.80;1.65;;;5.00;99.90;;;;;;4976714;28;20049;-92
2023/01/09 05:07:12;;;;;;;12.93;1.48;;;5.00;99.90;;;;;;4977246;28;20498;-92
2023/01/09 05:09:38;;;;;;;7.65;1.73;;;5.00;99.90;;;;;;4976949;28;20029;-91
2023/01/09 05:12:04;;;;;;;11.23;2.42;;;5.00;99.90;;;;;;4976843;28;20041;-91
2023/01/09 05:14:30;;;;;;;9.48;1.70;;;5.00;99.90;;;;;;4975809;28;20041;-90
2023/01/09 05:16:55;;;;;;;10.98;2.35;;;4.90;99.90;;;;;;4975595;28;20023;-92
2023/01/09 05:19:22;;;;;;;9.93;1.98;;;4.90;99.90;;;;;;4975824;28;20370;-92
2023/01/09 05:21:48;;;;;;;10.73;2.47;;;4.90;99.90;;;;;;4975729;28;20049;-90
2023/01/09 05:24:13;;;;;;;7.53;1.70;;;4.80;99.90;;;;;;4976271;28;20026;-92
2023/01/09 05:26:39;;;;;;;10.27;2.03;;;4.80;99.90;;;;;;4976472;28;20117;-93
2023/01/09 05:29:05;;;;;;;17.42;2.58;;;4.80;99.90;;;;;;4976144;28;20480;-93
2023/01/09 05:31:30;;;;;;;9.77;1.98;;;4.70;99.90;;;;;;4975757;28;20129;-92
2023/01/09 05:33:58;;;;;;;10.27;1.83;;;4.70;99.90;;;;;;4975956;28;20055;-92
2023/01/09 05:36:24;;;;;;;14.70;2.45;;;4.70;99.90;;;;;;4976011;28;20429;-93
2023/01/09 05:38:49;;;;;;;6.18;1.45;;;4.60;99.90;;;;;;4974539;28;20041;-92
2023/01/09 05:41:15;;;;;;;6.35;1.83;;;4.60;99.90;;;;;;4975222;28;20038;-93
2023/01/09 05:43:40;;;;;;;15.15;2.20;;;4.60;99.90;;;;;;4975738;28;20022;-93
2023/01/09 05:46:06;;;;;;;9.30;2.10;;;4.60;99.90;;;;;;4975468;28;20033;-91
2023/01/09 05:48:32;;;;;;;14.98;1.75;;;4.50;99.90;;;;;;4975476;28;20062;-93
2023/01/09 05:50:57;;;;;;;10.90;1.85;;;4.50;99.90;;;;;;4975590;28;20019;-92
2023/01/09 05:53:23;;;;;;;9.27;1.77;;;4.50;99.90;;;;;;4975942;28;20137;-92
2023/01/09 05:55:49;;;;;;;14.63;2.63;;;4.50;99.90;;;;;;4976197;28;20034;-92
2023/01/09 05:58:14;;;;;;;6.10;1.45;;;4.50;99.90;;;;;;4975661;28;20392;-91
2023/01/09 06:00:40;;;;;;;10.18;1.70;;;4.40;99.90;;;;;;4975711;28;20473;-92
2023/01/09 06:03:06;;;;;;;6.35;1.35;;;4.40;99.90;;;;;;4975672;28;20533;-92
2023/01/09 06:05:32;;;;;;;14.05;1.70;;;4.40;99.90;;;;;;4975428;28;20392;-92
2023/01/09 06:07:58;;;;;;;9.68;1.65;;;4.40;99.90;;;;;;4975520;28;20026;-92
2023/01/09 06:10:23;;;;;;;13.02;1.50;;;4.40;99.90;;;;;;4974801;28;20035;-93
2023/01/09 06:12:50;;;;;;;4.82;1.58;;;4.40;99.90;;;;;;4975931;28;20042;-92
2023/01/09 06:15:17;;;;;;;15.10;1.67;;;4.40;99.90;;;;;;4977889;28;20096;-93
2023/01/09 06:17:43;;;;;;;7.72;1.80;;;4.40;99.90;;;;;;4976455;28;20028;-92
2023/01/09 06:20:10;;;;;;;11.48;3.05;;;4.40;99.90;;;;;;4975447;28;20026;-92
2023/01/09 06:22:36;;;;;;;17.30;1.80;;;4.50;99.90;;;;;;4975862;28;20042;-92
2023/01/09 06:25:02;;;;;;;13.20;2.30;;;4.50;99.90;;;;;;4992898;28;20041;-92
2023/01/09 06:27:27;;;;;;;8.52;1.92;;;4.50;99.90;;;;;;4975469;28;20019;-93
2023/01/09 06:29:56;;;;;;;8.52;1.60;;;4.50;99.90;;;;;;4975294;28;20034;-91
2023/01/09 06:32:21;;;;;;;6.60;1.60;;;4.50;99.90;;;;;;4975349;28;20066;-93
2023/01/09 06:34:47;;;;;;;14.75;1.75;;;4.50;99.90;;;;;;4975015;28;20109;-92
2023/01/09 06:37:13;;;;;;;13.68;2.08;;;4.50;99.90;;;;;;4974945;28;20026;-92
2023/01/09 06:39:38;;;;;;;13.80;1.70;;;4.50;99.90;;;;;;4974978;28;20109;-93
2023/01/09 06:42:04;;;;;;;12.52;1.40;;;4.60;99.90;;;;;;4974793;28;20034;-92
2023/01/09 06:44:31;;;;;;;15.05;1.70;;;4.60;99.90;;;;;;4974865;28;20027;-92
2023/01/09 06:46:57;;;;;;;7.70;1.55;;;4.60;99.90;;;;;;4975209;28;20026;-91
2023/01/09 06:49:23;;;;;;;9.82;1.60;;;4.60;99.90;;;;;;4975096;28;20022;-92
2023/01/09 06:51:50;;;;;;;14.93;2.10;;;4.60;99.90;;;;;;4974739;28;20034;-92
2023/01/09 06:54:19;;;;;;;9.50;2.08;;;4.70;99.90;;;;;;4976663;28;20033;-93
2023/01/09 06:56:45;;;;;;;7.38;1.50;;;4.70;99.90;;;;;;4971519;28;20035;-92
2023/01/09 06:59:11;;;;;;;7.93;1.42;;;4.60;99.90;;;;;;4970951;28;20033;-95
2023/01/09 07:01:41;;;;;;;10.30;2.70;;;4.70;99.90;;;;;;4978876;28;20022;-94
2023/01/09 07:04:10;;;;;;;11.00;3.00;;;4.70;99.90;;;;;;4994845;28;20022;-93
2023/01/09 07:06:36;;;;;;;5.60;2.13;;;4.70;99.90;;;;;;4977340;28;20531;-93
2023/01/09 07:09:04;;;;;;;6.72;2.17;;;4.70;99.90;;;;;;4978614;28;20053;-92
2023/01/09 07:11:30;;;;;;;7.55;2.50;;;4.60;99.90;;;;;;4979027;28;20054;-91
2023/01/09 07:13:56;;;;;;;7.78;2.30;;;4.60;99.90;;;;;;4978791;28;20022;-91
2023/01/09 07:16:22;;;;;;;5.60;1.70;;;4.60;99.90;;;;;;4974873;28;20027;-90
2023/01/09 07:18:47;;;;;;;5.10;1.73;;;4.60;99.90;;;;;;4966737;28;20027;-92
2023/01/09 07:21:13;;;;;;;6.45;1.85;;;4.60;99.90;;;;;;4970816;28;20030;-90
2023/01/09 07:23:39;;;;;;;5.72;1.92;;;4.60;99.90;;;;;;4969504;28;20455;-90
2023/01/09 07:26:04;;;;;;;3.35;2.00;;;4.60;99.90;;;;;;4969306;28;20038;-90
2023/01/09 07:28:30;;;;;;;7.63;1.88;;;4.60;99.90;;;;;;4969028;28;20051;-91
2023/01/09 07:31:01;;;;;;;4.95;2.72;;;4.60;99.90;;;;;;4970258;28;20037;-91
2023/01/09 07:33:27;;;;;;;;;;;4.60;99.90;;;;;;4969220;28;20020;-92
2023/01/09 07:35:55;;;;;;;5.75;2.47;;;4.60;99.90;;;;;;4986053;28;19906;-92
2023/01/09 07:38:21;;;;;;;3.33;2.67;;;4.60;99.90;;;;;;4966879;28;20023;-92
2023/01/09 07:40:46;;;;;;;4.25;2.88;;;4.60;99.90;;;;;;4969054;28;20023;-93
2023/01/09 07:43:12;;;;;;;5.18;2.60;;;4.60;99.90;;;;;;4967120;28;20392;-91
2023/01/09 07:45:38;;;;;;;6.15;2.72;;;4.60;99.90;;;;;;4969539;28;20030;-91
2023/01/09 07:48:04;;;;;;;4.80;2.78;;;4.60;99.90;;;;;;4979008;28;20057;-91
2023/01/09 07:50:29;;;;;;;8.13;3.10;;;4.60;99.90;;;;;;4980265;28;20416;-90
2023/01/09 07:52:55;;;;;;;6.32;2.83;;;4.60;99.90;;;;;;4981280;28;20132;-91
2023/01/09 07:55:20;;;;;;;4.53;3.53;;;4.60;99.90;;;;;;4983733;28;20018;-92
2023/01/09 07:57:50;;;;;;;6.55;3.22;;;4.60;99.90;;;;;;4983024;28;20034;-91
2023/01/09 08:00:17;;;;;;;4.97;2.58;;;4.60;99.90;;;;;;4982770;28;20034;-92
2023/01/09 08:02:43;;;;;;;6.22;2.70;;;4.70;99.90;;;;;;4983783;28;20034;-92
2023/01/09 08:05:14;;;;;;;4.40;2.17;;;4.70;99.90;;;;;;4983187;28;20076;-91
2023/01/09 08:07:40;;;;;;;2.67;2.38;;;4.70;99.90;;;;;;4982734;28;20027;-90
2023/01/09 08:10:12;;;;;;;4.93;2.10;;;4.70;99.90;;;;;;4985876;28;20054;-91
2023/01/09 08:12:41;;;;;;;3.95;1.60;;;4.80;99.90;;;;;;4982210;28;20081;-91
2023/01/09 08:15:07;;;;;;;2.15;1.20;;;4.80;99.90;;;;;;4976574;28;20400;-91
2023/01/09 08:17:33;;;;;;;2.53;0.93;;;4.80;99.90;;;;;;4980548;28;20036;-90
2023/01/09 08:19:59;;;;;;;1.35;0.80;;;4.80;99.90;;;;;;4980616;28;20027;-90
2023/01/09 08:22:24;;;;;;;4.07;0.50;;;4.90;99.90;;;;;;4979250;28;20030;-89
2023/01/09 08:24:50;;;;;;;1.10;0.55;;;4.90;99.90;;;;;;4978691;28;20073;-90
2023/01/09 08:27:16;;;;;;;3.95;0.80;;;4.90;99.90;;;;;;4978305;28;20026;-91
2023/01/09 08:29:41;;;;;;;4.57;0.52;;;4.80;99.90;;;;;;4979294;28;20033;-90
2023/01/09 08:32:07;;;;;;;0.85;0.30;;;4.80;99.90;;;;;;4980104;28;20031;-90
2023/01/09 08:34:33;;;;;;;5.43;0.65;;;4.80;99.90;;;;;;4977624;28;20026;-91
2023/01/09 08:36:59;;;;;;;1.98;0.32;;;4.80;99.90;;;;;;4977356;28;20027;-92
2023/01/09 08:39:25;;;;;;;4.65;1.00;;;4.90;99.90;;;;;;4977819;28;20023;-93
2023/01/09 08:47:22;;;;;;;3.97;0.70;;;4.90;99.90;;;;;;4982853;28;20129;-95
2023/01/09 08:49:49;;;;;;;2.58;0.70;;;4.80;99.90;;;;;;4977327;28;20058;-94
2023/01/09 08:52:19;;;;;;;1.20;0.70;;;4.90;99.90;;;;;;4978202;28;20027;-94
2023/01/09 08:54:46;;;;;;;5.38;0.75;;;4.80;99.90;;;;;;4978317;28;20496;-94
2023/01/09 08:57:19;;;;;;;2.13;0.77;;;4.80;99.90;;;;;;4995233;28;20117;-93
2023/01/09 08:59:45;;;;;;;5.35;0.80;;;4.80;99.90;;;;;;4978578;28;20345;-94
2023/01/09 09:02:11;;;;;;;3.10;0.90;;;4.80;99.90;;;;;;4978105;28;20547;-94
2023/01/09 09:04:51;;;;;;;;;;;;;;;;;;;;;
2023/01/09 09:07:35;;;;;;;8.10;1.10;;;4.80;99.90;;;;;;4954286;28;20041;-96
2023/01/09 09:10:18;;;;;;;7.40;1.13;;;4.80;99.90;;;;;;4995592;28;20124;-93
2023/01/09 09:12:49;;;;;;;5.38;1.10;;;4.80;99.90;;;;;;4994871;28;20430;-96
2023/01/09 09:15:27;;;;;;;7.72;2.10;;;4.80;99.90;;;;;;4977354;28;20101;-94
2023/01/09 09:18:01;;;;;;;5.10;1.15;;;4.80;99.90;;;;;;4976977;28;20027;-94
2023/01/09 09:20:37;;;;;;;12.05;1.98;;;4.80;99.90;;;;;;4977759;28;20044;-95
2023/01/09 09:23:07;;;;;;;5.85;2.28;;;4.90;99.90;;;;;;4993160;28;20018;-95
2023/01/09 09:25:33;;;;;;;6.50;0.88;;;4.90;99.90;;;;;;4977895;28;20069;-94
2023/01/09 09:28:00;;;;;;;4.03;0.70;;;4.90;99.90;;;;;;4977442;28;20022;-94
2023/01/09 09:30:26;;;;;;;2.72;0.90;;;4.90;99.90;;;;;;4977495;28;20054;-94
2023/01/09 09:32:53;;;;;;;4.88;0.80;;;4.90;99.90;;;;;;4977447;28;20030;-94
2023/01/09 09:35:21;;;;;;;2.33;0.63;;;4.90;99.90;;;;;;4977191;28;20029;-93
2023/01/09 09:37:58;;;;;;;3.53;1.08;;;4.90;99.90;;;;;;4994575;28;20281;-95
2023/01/09 09:40:57;;;;;;;2.03;0.80;;;4.90;99.90;;;;;;4972678;28;20019;-95
2023/01/09 09:47:05;;;;;;;10.23;1.52;;;4.90;99.90;;;;;;4993573;28;20501;-95
2023/01/09 09:50:00;;;;;;;2.08;0.63;;;4.90;99.90;;;;;;4965085;28;20117;-95
2023/01/09 09:52:47;;;;;;;7.32;1.23;;;5.00;99.90;;;;;;4938703;28;20149;-94
2023/01/09 09:55:31;;;;;;;2.80;0.85;;;5.00;99.90;;;;;;4977139;28;20022;-93
2023/01/09 09:58:13;;;;;;;6.30;1.23;;;5.10;99.90;;;;;;4976803;28;20479;-95
2023/01/09 10:00:39;;;;;;;7.15;0.63;;;5.10;99.90;;;;;;4993986;28;20094;-94
2023/01/09 10:04:05;;;;;;;9.15;1.52;;;5.10;99.90;;;;;;4976971;28;20046;-94
2023/01/09 11:58:39;;;;;;;18.38;2.13;;;6.10;99.90;;;;;;6053934;23;20036;31
2023/01/09 12:01:35;;;;;;;7.15;1.40;;;6.10;99.90;;;;;;4915210;29;20051;-89
2023/01/09 12:04:27;;;;;;;16.20;2.58;;;6.10;99.90;;;;;;4943099;29;20032;-90
2023/01/09 12:07:21;;;;;;;16.75;1.80;;;6.20;99.90;;;;;;4942501;29;20012;-91
2023/01/09 12:10:00;;;;;;;9.45;2.33;;;6.40;99.90;;;;;;4942747;29;20017;-88
2023/01/09 12:12:57;;;;;;;11.57;1.67;;;6.60;99.90;;;;;;4942664;29;20032;-90
2023/01/09 12:15:47;;;;;;;19.17;2.03;;;6.80;99.90;;;;;;4940151;29;20052;-94
2023/01/09 12:18:32;;;;;;;15.20;1.45;;;6.90;99.90;;;;;;4930720;29;20048;-92
2023/01/09 12:21:03;;;;;;;12.82;1.73;;;6.80;99.90;;;;;;4925562;29;20479;-94
2023/01/09 12:23:34;;;;;;;13.63;1.80;;;6.80;99.90;;;;;;4932438;29;20042;-90
2023/01/09 12:26:11;;;;;;;6.97;1.80;;;6.80;99.90;;;;;;4926146;29;20029;-93
2023/01/09 12:29:01;;;;;;;13.25;1.45;;;6.70;99.90;;;;;;4924386;29;20041;-94
2023/01/09 12:31:32;;;;;;;7.43;1.30;;;6.50;99.90;;;;;;4923146;29;20036;-93
2023/01/09 12:34:20;;;;;;;9.57;1.65;;;6.40;99.90;;;;;;4928506;29;20044;-90
2023/01/09 12:37:10;;;;;;;3.78;0.60;;;6.40;99.90;;;;;;4926854;29;20065;-94
2023/01/09 12:39:59;;;;;;;9.98;1.50;;;6.30;99.90;;;;;;4933740;29;20040;-92
2023/01/09 12:42:33;;;;;;;7.15;1.95;;;6.20;99.90;;;;;;4927295;29;20012;-89
2023/01/09 12:45:05;;;;;;;11.48;2.95;;;6.10;99.90;;;;;;4930806;29;20012;-90
2023/01/09 12:47:47;;;;;;;9.27;1.98;;;6.10;99.90;;;;;;4936143;29;20020;-92
2023/01/09 12:50:36;;;;;;;13.63;2.47;;;6.20;99.90;;;;;;4932553;29;20035;-89
2023/01/09 12:53:05;;;;;;;16.95;2.92;;;6.50;99.90;;;;;;4914735;29;20048;-89
2023/01/09 12:55:36;;;;;;;10.18;1.50;;;6.80;99.90;;;;;;4906828;29;20092;-92
2023/01/09 12:58:33;;;;;;;4.07;1.17;;;7.00;99.90;;;;;;4922723;29;20036;-92
2023/01/09 13:01:03;;;;;;;14.13;1.70;;;7.10;99.90;;;;;;4900981;29;20060;-95
2023/01/09 13:03:52;;;;;;;13.68;2.10;;;7.10;99.90;;;;;;4917081;29;20029;-95
2023/01/09 13:06:20;;;;;;;13.70;1.83;;;7.30;99.90;;;;;;4897301;29;20038;-94
2023/01/09 13:09:12;;;;;;;12.18;1.67;;;7.20;99.90;;;;;;4897100;29;20044;-95
2023/01/09 13:12:11;;;;;;;12.00;1.83;;;7.20;99.90;;;;;;4895410;29;20135;-93
2023/01/09 13:15:02;;;;;;;13.95;2.20;;;7.10;99.90;;;;;;4915876;29;20040;-96
2023/01/09 13:17:45;;;;;;;13.98;2.00;;;6.90;99.90;;;;;;4903786;29;20028;-96
2023/01/09 13:20:24;;;;;;;15.10;2.00;;;6.80;99.90;;;;;;4932061;29;20028;-94
2023/01/09 13:22:51;;;;;;;14.35;1.77;;;6.80;99.90;;;;;;4929449;29;20024;-96
2023/01/09 13:25:19;;;;;;;18.02;2.25;;;6.80;99.90;;;;;;4918081;29;20023;-95
2023/01/09 13:27:53;;;;;;;9.73;1.67;;;6.70;99.90;;;;;;4917305;29;20024;-93
2023/01/09 13:30:56;;;;;;;9.15;1.80;;;6.70;99.90;;;;;;4916203;29;20035;-94
2023/01/09 13:33:37;;;;;;;7.20;1.77;;;7.10;99.90;;;;;;4863586;29;20052;-93
2023/01/09 13:36:03;;;;;;;12.45;1.90;;;7.40;99.90;;;;;;4898726;29;20040;-95
2023/01/09 13:38:31;;;;;;;9.68;1.85;;;7.40;99.90;;;;;;4899153;29;20040;-93
2023/01/09 13:44:17;;;;;;;10.48;1.67;;;7.00;99.90;;;;;;4922953;29;20059;-95
2023/01/09 13:46:52;;;;;;;12.05;1.70;;;6.80;99.90;;;;;;4930127;29;20418;-95
2023/01/09 13:49:40;;;;;;;15.98;2.80;;;6.60;99.90;;;;;;4911031;29;20150;-95
2023/01/09 13:52:24;;;;;;;14.88;1.98;;;6.40;99.90;;;;;;4911331;29;20088;-95
2023/01/09 13:55:02;;;;;;;11.82;1.33;;;6.20;99.90;;;;;;4911546;29;20032;-96
2023/01/09 13:57:35;;;;;;;9.63;2.10;;;6.10;99.90;;;;;;4907095;29;20036;-96
2023/01/09 14:00:16;;;;;;;12.05;1.45;;;6.10;99.90;;;;;;4890870;29;20040;-92
2023/01/09 14:02:45;;;;;;;;;;;6.00;99.90;;;;;;4895596;29;20040;-95
2023/01/09 14:34:58;;;;;;;12.15;2.13;;;6.30;99.90;;;;;;4928052;29;20095;-93
2023/01/09 14:37:27;;;;;;;8.27;1.20;;;6.30;99.90;;;;;;4899226;29;20044;-94
2023/01/09 14:39:54;;;;;;;8.13;1.15;;;6.40;99.90;;;;;;4885914;29;20069;-93
2023/01/09 14:42:24;;;;;;;18.95;2.17;;;6.40;99.90;;;;;;4884942;29;20064;-94
2023/01/09 14:44:58;;;;;;;15.52;1.90;;;6.50;99.90;;;;;;4884416;29;20025;-91
2023/01/09 14:47:32;;;;;;;16.73;2.22;;;6.50;99.90;;;;;;4900784;29;20574;-95
2023/01/09 14:50:03;;;;;;;13.27;1.65;;;6.40;99.90;;;;;;4900588;29;20031;-95
2023/01/09 14:52:36;;;;;;;20.55;1.45;;;6.40;99.90;;;;;;4900956;29;20052;-94
2023/01/09 14:55:11;;;;;;;13.73;2.25;;;6.50;99.90;;;;;;4885101;29;20036;-94
2023/01/09 15:06:42;;;;;;;16.75;2.10;;;6.50;99.90;;;;;;5492054;23;20554;-94
2023/01/09 15:09:29;;;;;;;25.25;2.00;;;6.40;99.90;;;;;;4980568;28;20026;-93
2023/01/09 15:12:02;;;;;;;19.63;2.05;;;6.40;99.90;;;;;;4979989;28;20104;-94
2023/01/09 15:14:38;;;;;;;20.58;2.22;;;6.30;99.90;;;;;;4979046;28;20019;-93
2023/01/09 15:17:06;;;;;;;10.88;2.80;;;6.30;99.90;;;;;;4979453;28;20037;-91
2023/01/09 15:19:32;;;;;;;16.63;2.05;;;6.30;99.90;;;;;;4979953;28;20065;-94
2023/01/09 15:22:01;;;;;;;24.52;2.50;;;6.30;99.90;;;;;;4979007;28;20487;-95
2023/01/09 15:24:33;;;;;;;15.18;2.20;;;6.30;99.90;;;;;;4979738;28;20023;-94
2023/01/09 15:27:14;;;;;;;22.13;3.08;;;6.30;99.90;;;;;;4979300;28;20078;-95
2023/01/09 15:30:02;;;;;;;13.40;2.15;;;6.30;99.90;;;;;;4978482;28;20034;-94
2023/01/09 15:32:29;;;;;;;21.58;2.10;;;6.30;99.90;;;;;;4964079;28;20046;-96
2023/01/09 15:34:56;;;;;;;25.67;2.78;;;6.30;99.90;;;;;;4979016;28;20026;-94
2023/01/09 15:37:33;;;;;;;18.50;3.00;;;6.20;99.90;;;;;;4978996;28;20029;-94
2023/01/09 15:40:03;;;;;;;26.80;4.35;;;6.20;99.90;;;;;;4978919;28;20022;-94
2023/01/09 15:42:54;;;;;;;19.55;3.30;;;6.20;99.90;;;;;;4979499;28;20034;-94
2023/01/09 16:54:03;;;;;;;19.00;3.30;;;5.50;99.90;;;;;;5208060;23;20057;-87
2023/01/09 16:56:29;;;;;;;15.73;2.72;;;5.50;99.90;;;;;;4977000;28;20031;-87
2023/01/09 16:58:55;;;;;;;17.95;2.50;;;5.50;99.90;;;;;;4994395;28;20057;-89
2023/01/09 17:01:22;;;;;;;14.05;2.05;;;5.50;99.90;;;;;;4977357;28;20469;-89
2023/01/09 17:03:48;;;;;;;17.48;3.60;;;5.50;99.90;;;;;;4976653;28;20030;-88
2023/01/09 17:06:22;;;;;;;26.48;3.55;;;5.50;99.90;;;;;;4993653;28;20026;-89
2023/01/09 17:08:50;;;;;;;17.35;2.30;;;5.50;99.90;;;;;;4991388;28;20157;-88